This is the latest recevied weather packets stored in our database for station/object IV3CGM-13. If no packets are shown the sender has not sent any weather packets the latest 10 day(s).
| Time | Temp. | Humidity | Pressure | Rain* | Wind** | Luminosity | Snow |
|---|---|---|---|---|---|---|---|
| 1777539083 | 12.22° C | 53% | 1024.5 hPa | 0 mm | - | 687 W/m² | - |
| 1777538396 | 11.67° C | 54% | 1024.5 hPa | 0 mm | - | 665 W/m² | - |
| 1777537707 | 12.22° C | 54% | 1024.5 hPa | 0 mm | - | 642 W/m² | - |
| 1777537020 | 11.11° C | 58% | 1024.4 hPa | 0 mm | - | 613 W/m² | - |
| 1777536283 | 11.11° C | 58% | 1024.3 hPa | 0 mm | - | 581 W/m² | - |
| 1777535582 | 11.11° C | 57% | 1024.1 hPa | 0 mm | - | 540 W/m² | - |
| 1777534895 | 11.11° C | 58% | 1024.1 hPa | 0 mm | - | 507 W/m² | - |
| 1777534203 | 11.11° C | 58% | 1024 hPa | 0 mm | - | 325 W/m² | - |
| 1777532720 | 10.56° C | 62% | 1024 hPa | 0 mm | - | 385 W/m² | - |
| 1777532019 | 10.56° C | 61% | 1023.9 hPa | 0 mm | - | 349 W/m² | - |
| 1777531332 | 10.56° C | 63% | 1023.8 hPa | 0 mm | - | 82 W/m² | - |
| 1777530645 | 10.56° C | 62% | 1023.6 hPa | 0 mm | - | 69 W/m² | - |
| 1777529957 | 10.56° C | 63% | 1023.6 hPa | 0 mm | - | 97 W/m² | - |
| 1777529220 | 10.56° C | 64% | 1023.6 hPa | 0 mm | - | 207 W/m² | - |
| 1777528520 | 10° C | 65% | 1023.4 hPa | 0 mm | - | 170 W/m² | - |
| 1777527832 | 10° C | 71% | 1023.3 hPa | 0 mm | - | 137 W/m² | - |
| 1777527144 | 8.89° C | 74% | 1023.2 hPa | 0 mm | - | 77 W/m² | - |
| 1777526457 | 8.33° C | 84% | 1023.1 hPa | 0 mm | - | 58 W/m² | - |
| 1777525720 | 7.22° C | 93% | 1023 hPa | 0 mm | - | 49 W/m² | - |
| 1777525020 | 6.11° C | 96% | 1022.9 hPa | 0 mm | - | 39 W/m² | - |
| 1777524332 | 6.11° C | 99% | 1022.9 hPa | 0 mm | - | 33 W/m² | - |
| 1777523645 | 5.56° C | 98% | 1022.9 hPa | 0 mm | - | 26 W/m² | - |
| 1777522957 | 5.56° C | 97% | 1022.8 hPa | 0 mm | - | 18 W/m² | - |
| 1777522221 | 5.56° C | 97% | 1022.8 hPa | 0 mm | - | 10 W/m² | - |
| 1777521519 | 6.11° C | 95% | 1022.8 hPa | 0 mm | - | 4 W/m² | - |
* Rain latest hour (hover to see other rain measurements)
** Current wind speed in m/s (hover to see current wind gust speed)